Time;durP1;ratioP1;P1;durP2;ratioP2;P2;SDS_P1;SDS_P2;PMS_P1;PMS_P2;Temp;Humidity;BMP_temperature;BMP_pressure;BME280_temperature;BME280_humidity;BME280_pressure;Samples;Min_cycle;Max_cycle;Signal;HPM_P1;HPM_P2
2023/09/10 00:00:25;;;;;;;19.60;12.90;;;;;;;;;;5058851;28;20036;-64
2023/09/10 00:02:51;;;;;;;14.82;13.40;;;;;;;;;;5056289;28;20474;-64
2023/09/10 00:05:17;;;;;;;16.80;15.27;;;;;;;;;;5054486;28;20028;-64
2023/09/10 00:07:43;;;;;;;18.35;16.55;;;;;;;;;;5056906;28;21643;-64
2023/09/10 00:10:09;;;;;;;15.45;14.00;;;;;;;;;;5057137;28;20791;-64
2023/09/10 00:12:35;;;;;;;14.48;13.15;;;;;;;;;;5056615;28;20029;-64
2023/09/10 00:15:01;;;;;;;15.80;14.25;;;;;;;;;;5057832;28;20036;-64
2023/09/10 00:17:27;;;;;;;14.57;13.07;;;;;;;;;;5058906;28;20020;-64
2023/09/10 00:19:54;;;;;;;13.88;12.48;;;;;;;;;;5058803;28;20963;-64
2023/09/10 00:22:20;;;;;;;11.85;10.75;;;;;;;;;;5058048;28;20032;-64
2023/09/10 00:24:46;;;;;;;13.63;12.27;;;;;;;;;;5056989;28;20040;-65
2023/09/10 00:27:13;;;;;;;24.23;12.52;;;;;;;;;;5058109;28;20032;-64
2023/09/10 00:29:39;;;;;;;9.32;7.88;;;;;;;;;;5058338;28;20317;-64
2023/09/10 00:32:05;;;;;;;14.35;9.32;;;;;;;;;;5057873;28;20570;-64
2023/09/10 00:34:32;;;;;;;9.52;7.43;;;;;;;;;;5058944;28;20062;-64
2023/09/10 00:36:59;;;;;;;17.08;12.45;;;;;;;;;;5057612;28;20040;-64
2023/09/10 00:39:25;;;;;;;15.80;13.25;;;;;;;;;;5057735;28;20051;-64
2023/09/10 00:41:54;;;;;;;37.08;13.40;;;;;;;;;;5056825;28;20037;-65
2023/09/10 00:44:20;;;;;;;17.00;10.27;;;;;;;;;;5057397;28;20043;-65
2023/09/10 00:46:47;;;;;;;23.83;11.38;;;;;;;;;;5058864;28;20056;-64
2023/09/10 00:49:13;;;;;;;12.82;11.52;;;;;;;;;;5058303;28;20039;-64
2023/09/10 00:51:40;;;;;;;21.52;11.90;;;;;;;;;;5058151;28;20033;-64
2023/09/10 00:54:06;;;;;;;23.85;12.77;;;;;;;;;;5056500;28;20036;-64
2023/09/10 00:56:32;;;;;;;13.95;12.35;;;;;;;;;;5057872;28;20064;-65
2023/09/10 00:58:58;;;;;;;16.40;11.48;;;;;;;;;;5057181;28;20105;-64
2023/09/10 01:01:24;;;;;;;22.73;11.38;;;;;;;;;;5057239;28;20028;-64
2023/09/10 01:03:50;;;;;;;13.07;10.57;;;;;;;;;;5058368;28;20044;-64
2023/09/10 01:06:16;;;;;;;10.07;9.18;;;;;;;;;;5056130;28;20044;-64
2023/09/10 01:08:43;;;;;;;10.15;9.25;;;;;;;;;;5057213;28;20077;-64
2023/09/10 01:11:17;;;;;;;11.48;8.52;;;;;;;;;;5057508;28;20379;-64
2023/09/10 01:13:58;;;;;;;10.23;7.05;;;;;;;;;;5055111;28;20024;-64
2023/09/10 01:16:28;;;;;;;15.30;6.78;;;;;;;;;;5057769;28;20017;-64
2023/09/10 01:19:01;;;;;;;13.75;7.53;;;;;;;;;;5058004;28;20034;-64
2023/09/10 01:21:30;;;;;;;8.38;7.43;;;;;;;;;;5056797;28;21374;-64
2023/09/10 01:23:59;;;;;;;9.18;8.25;;;;;;;;;;5057422;28;20027;-64
2023/09/10 01:26:25;;;;;;;12.80;11.43;;;;;;;;;;5056691;28;20032;-64
2023/09/10 01:28:51;;;;;;;11.60;10.40;;;;;;;;;;5057637;28;20075;-64
2023/09/10 01:31:18;;;;;;;12.30;10.35;;;;;;;;;;5057546;28;20067;-64
2023/09/10 01:33:47;;;;;;;14.10;10.68;;;;;;;;;;5056860;28;21729;-64
2023/09/10 01:36:15;;;;;;;12.65;11.35;;;;;;;;;;5056643;28;20671;-64
2023/09/10 01:38:44;;;;;;;13.02;11.63;;;;;;;;;;5056271;28;20138;-64
2023/09/10 01:41:13;;;;;;;14.85;12.98;;;;;;;;;;5056615;28;20569;-64
2023/09/10 01:43:39;;;;;;;13.02;11.32;;;;;;;;;;5054343;28;20058;-64
2023/09/10 01:46:06;;;;;;;13.40;11.98;;;;;;;;;;5057417;28;20040;-64
2023/09/10 01:48:32;;;;;;;14.88;13.05;;;;;;;;;;5057326;28;20036;-64
2023/09/10 01:50:59;;;;;;;13.57;10.77;;;;;;;;;;5054900;28;20036;-64
2023/09/10 01:53:25;;;;;;;9.98;8.73;;;;;;;;;;5056941;28;20032;-64
2023/09/10 01:55:51;;;;;;;11.88;9.48;;;;;;;;;;5055608;28;20055;-64
2023/09/10 01:58:17;;;;;;;11.32;9.82;;;;;;;;;;5056959;28;20085;-64
2023/09/10 02:00:45;;;;;;;12.93;11.32;;;;;;;;;;5055511;28;20113;-64
2023/09/10 02:03:11;;;;;;;9.98;8.98;;;;;;;;;;5057074;28;20027;-64
2023/09/10 02:05:37;;;;;;;8.38;7.45;;;;;;;;;;5055355;28;20032;-64
2023/09/10 02:08:04;;;;;;;8.25;6.88;;;;;;;;;;5055811;28;20647;-64
2023/09/10 02:10:32;;;;;;;8.30;7.43;;;;;;;;;;5057055;28;20036;-64
2023/09/10 02:12:58;;;;;;;8.73;7.55;;;;;;;;;;5053659;28;20114;-64
2023/09/10 02:15:24;;;;;;;7.72;6.93;;;;;;;;;;5052438;28;20085;-64
2023/09/10 02:17:50;;;;;;;8.60;7.22;;;;;;;;;;5056710;28;20737;-64
2023/09/10 02:20:17;;;;;;;6.55;5.55;;;;;;;;;;5054368;28;20039;-64
2023/09/10 02:22:43;;;;;;;6.15;5.50;;;;;;;;;;5054032;28;20031;-64
2023/09/10 02:25:09;;;;;;;6.85;5.45;;;;;;;;;;5055324;28;21719;-64
2023/09/10 02:27:35;;;;;;;6.70;5.80;;;;;;;;;;5055852;28;20028;-64
2023/09/10 02:30:06;;;;;;;7.28;5.90;;;;;;;;;;5056792;28;20165;-63
2023/09/10 02:32:32;;;;;;;8.63;6.80;;;;;;;;;;5056315;28;20839;-64
2023/09/10 02:34:58;;;;;;;7.85;6.65;;;;;;;;;;5055200;28;20031;-70
2023/09/10 02:37:24;;;;;;;9.05;6.82;;;;;;;;;;5054871;28;21541;-70
2023/09/10 02:39:50;;;;;;;9.65;8.63;;;;;;;;;;5056708;28;20046;-70
2023/09/10 02:42:19;;;;;;;10.65;9.55;;;;;;;;;;5056061;28;20109;-70
2023/09/10 02:44:46;;;;;;;12.90;10.48;;;;;;;;;;5055541;28;20060;-70
2023/09/10 02:47:12;;;;;;;12.73;11.35;;;;;;;;;;5055409;28;20584;-70
2023/09/10 02:49:38;;;;;;;15.90;12.95;;;;;;;;;;5055463;28;20040;-70
2023/09/10 02:52:04;;;;;;;21.83;19.27;;;;;;;;;;5055386;28;20039;-70
2023/09/10 02:54:30;;;;;;;22.50;19.60;;;;;;;;;;5055551;28;20043;-70
2023/09/10 02:56:56;;;;;;;19.50;16.27;;;;;;;;;;5055594;28;20498;-70
2023/09/10 02:59:25;;;;;;;16.00;13.93;;;;;;;;;;5056210;28;20077;-69
2023/09/10 03:01:52;;;;;;;14.07;8.13;;;;;;;;;;5053318;28;20571;-70
2023/09/10 03:04:18;;;;;;;16.98;9.35;;;;;;;;;;5054805;28;20028;-70
2023/09/10 03:06:45;;;;;;;9.20;7.30;;;;;;;;;;5055582;28;20078;-70
2023/09/10 03:09:11;;;;;;;9.70;8.40;;;;;;;;;;5055917;28;20033;-70
2023/09/10 03:11:38;;;;;;;12.60;10.82;;;;;;;;;;5055129;28;20059;-70
2023/09/10 03:14:04;;;;;;;17.45;14.43;;;;;;;;;;5056193;28;20020;-70
2023/09/10 03:16:32;;;;;;;13.10;11.00;;;;;;;;;;5054503;28;20043;-70
2023/09/10 03:18:58;;;;;;;10.23;8.73;;;;;;;;;;5055594;28;20043;-70
2023/09/10 03:21:24;;;;;;;10.60;9.20;;;;;;;;;;5055676;28;22250;-70
2023/09/10 03:23:50;;;;;;;8.65;6.50;;;;;;;;;;5055742;28;20041;-70
2023/09/10 03:26:16;;;;;;;9.00;7.47;;;;;;;;;;5060793;28;20036;-70
2023/09/10 03:28:42;;;;;;;14.32;9.93;;;;;;;;;;5060302;28;20028;-70
2023/09/10 03:31:09;;;;;;;13.55;10.98;;;;;;;;;;5059776;28;20043;-70
2023/09/10 03:33:35;;;;;;;10.80;9.40;;;;;;;;;;5056507;28;20763;-70
2023/09/10 03:36:01;;;;;;;10.98;9.73;;;;;;;;;;5059507;28;20079;-70
2023/09/10 03:38:27;;;;;;;11.38;9.70;;;;;;;;;;5059283;28;20036;-70
2023/09/10 03:40:53;;;;;;;11.35;9.80;;;;;;;;;;5058545;28;20466;-70
2023/09/10 03:43:19;;;;;;;11.73;10.18;;;;;;;;;;5059801;28;20050;-70
2023/09/10 03:45:46;;;;;;;12.05;9.80;;;;;;;;;;5058093;28;20082;-70
2023/09/10 03:48:12;;;;;;;12.13;10.30;;;;;;;;;;5058816;28;20042;-69
2023/09/10 03:50:39;;;;;;;11.82;8.88;;;;;;;;;;5058858;28;20163;-70
2023/09/10 03:53:05;;;;;;;11.60;9.20;;;;;;;;;;5058638;28;20771;-70
2023/09/10 03:55:31;;;;;;;11.80;10.23;;;;;;;;;;5059154;28;20059;-69
2023/09/10 03:57:57;;;;;;;10.15;8.60;;;;;;;;;;5059420;28;20036;-69
2023/09/10 04:00:23;;;;;;;11.32;10.10;;;;;;;;;;5057085;28;20031;-70
2023/09/10 04:02:52;;;;;;;14.77;12.88;;;;;;;;;;5058515;28;20036;-70
2023/09/10 04:05:18;;;;;;;18.00;15.60;;;;;;;;;;5057494;28;20035;-69
2023/09/10 04:07:45;;;;;;;18.42;16.42;;;;;;;;;;5058549;28;20032;-69
2023/09/10 04:10:11;;;;;;;15.68;14.07;;;;;;;;;;5058258;28;20103;-70
2023/09/10 04:12:37;;;;;;;14.27;12.77;;;;;;;;;;5058342;28;20060;-70
2023/09/10 04:15:04;;;;;;;11.23;9.82;;;;;;;;;;5060048;28;21277;-70
2023/09/10 04:17:30;;;;;;;9.70;8.63;;;;;;;;;;5057548;28;20035;-70
2023/09/10 04:19:59;;;;;;;10.07;9.07;;;;;;;;;;5056650;28;20028;-70
2023/09/10 04:22:25;;;;;;;10.85;9.70;;;;;;;;;;5055037;28;20039;-70
2023/09/10 04:24:51;;;;;;;10.85;9.68;;;;;;;;;;5056575;28;20044;-70
2023/09/10 04:27:17;;;;;;;9.65;8.50;;;;;;;;;;5057318;28;20716;-70
2023/09/10 04:29:44;;;;;;;11.70;9.13;;;;;;;;;;5057080;28;20165;-70
2023/09/10 04:32:10;;;;;;;12.48;10.68;;;;;;;;;;5057917;28;21934;-70
2023/09/10 04:34:36;;;;;;;9.40;8.02;;;;;;;;;;5057661;28;20680;-70
2023/09/10 04:37:04;;;;;;;12.35;8.88;;;;;;;;;;5056606;28;20047;-70
2023/09/10 04:39:30;;;;;;;16.98;10.95;;;;;;;;;;5057308;28;20031;-70
2023/09/10 04:41:56;;;;;;;14.88;12.77;;;;;;;;;;5059060;28;20525;-70
2023/09/10 04:44:22;;;;;;;12.73;11.43;;;;;;;;;;5057099;28;20040;-70
2023/09/10 04:46:48;;;;;;;14.32;12.63;;;;;;;;;;5058069;28;20044;-70
2023/09/10 04:49:14;;;;;;;12.52;11.23;;;;;;;;;;5057404;28;20044;-70
2023/09/10 04:51:41;;;;;;;12.52;11.23;;;;;;;;;;5058415;28;20036;-70
2023/09/10 04:54:07;;;;;;;10.85;9.73;;;;;;;;;;5056763;28;20031;-70
2023/09/10 04:56:33;;;;;;;10.93;9.82;;;;;;;;;;5057811;28;20032;-70
2023/09/10 04:58:59;;;;;;;10.98;9.88;;;;;;;;;;5058339;28;20039;-70
2023/09/10 05:01:25;;;;;;;9.68;8.68;;;;;;;;;;5058551;28;20036;-69
2023/09/10 05:03:51;;;;;;;11.30;9.32;;;;;;;;;;5057087;28;20036;-70
2023/09/10 05:06:19;;;;;;;9.75;7.88;;;;;;;;;;5056473;28;20067;-70
2023/09/10 05:08:45;;;;;;;8.70;7.82;;;;;;;;;;5057882;28;20132;-70
2023/09/10 05:11:12;;;;;;;9.07;8.15;;;;;;;;;;5056876;28;20024;-70
2023/09/10 05:13:38;;;;;;;9.60;8.05;;;;;;;;;;5057261;28;21159;-70
2023/09/10 05:16:04;;;;;;;8.88;7.97;;;;;;;;;;5057070;28;20032;-70
2023/09/10 05:18:30;;;;;;;9.88;8.77;;;;;;;;;;5058336;28;20043;-70
2023/09/10 05:20:56;;;;;;;15.32;10.93;;;;;;;;;;5058312;28;20027;-70
2023/09/10 05:23:23;;;;;;;12.23;10.93;;;;;;;;;;5055819;28;20666;-70
2023/09/10 05:25:50;;;;;;;10.25;9.15;;;;;;;;;;5056777;28;20063;-70
2023/09/10 05:28:16;;;;;;;8.90;8.00;;;;;;;;;;5058111;28;20062;-70
2023/09/10 05:30:42;;;;;;;9.23;8.32;;;;;;;;;;5057062;28;20034;-70
2023/09/10 05:33:08;;;;;;;8.70;7.82;;;;;;;;;;5057895;28;20033;-70
2023/09/10 05:35:34;;;;;;;10.52;9.30;;;;;;;;;;5056597;28;20071;-70
2023/09/10 05:38:00;;;;;;;13.00;11.65;;;;;;;;;;5055185;28;20036;-70
2023/09/10 05:40:26;;;;;;;14.10;12.70;;;;;;;;;;5057333;28;20035;-70
2023/09/10 05:42:53;;;;;;;15.40;13.48;;;;;;;;;;5055244;28;20166;-69
2023/09/10 05:45:19;;;;;;;14.90;13.40;;;;;;;;;;5056837;28;20028;-70
2023/09/10 05:47:45;;;;;;;14.65;13.15;;;;;;;;;;5056760;28;20055;-69
2023/09/10 05:50:12;;;;;;;17.77;16.08;;;;;;;;;;5057037;28;20036;-70
2023/09/10 05:52:38;;;;;;;22.95;20.65;;;;;;;;;;5056518;28;20148;-70
2023/09/10 05:55:04;;;;;;;22.30;19.90;;;;;;;;;;5056316;28;20035;-70
2023/09/10 05:57:30;;;;;;;23.02;20.50;;;;;;;;;;5055820;28;20028;-70
2023/09/10 05:59:56;;;;;;;17.05;15.25;;;;;;;;;;5056863;28;20036;-70
2023/09/10 06:02:22;;;;;;;13.95;12.52;;;;;;;;;;5056708;28;22042;-69
2023/09/10 06:04:48;;;;;;;19.15;17.15;;;;;;;;;;5056738;28;20047;-69
2023/09/10 06:07:14;;;;;;;23.30;20.85;;;;;;;;;;5056652;28;20608;-70
2023/09/10 06:09:40;;;;;;;22.63;20.23;;;;;;;;;;5056764;28;20489;-69
2023/09/10 06:12:06;;;;;;;25.55;21.17;;;;;;;;;;5056509;28;20466;-69
2023/09/10 06:14:34;;;;;;;29.15;24.98;;;;;;;;;;5058707;28;20028;-70
2023/09/10 06:17:01;;;;;;;26.92;24.30;;;;;;;;;;5056497;28;21984;-70
2023/09/10 06:19:27;;;;;;;23.10;20.65;;;;;;;;;;5056525;28;20040;-70
2023/09/10 06:21:53;;;;;;;21.35;19.13;;;;;;;;;;5055666;28;20035;-70
2023/09/10 06:24:19;;;;;;;20.33;17.77;;;;;;;;;;5054972;28;20039;-70
2023/09/10 06:26:45;;;;;;;19.15;17.15;;;;;;;;;;5052925;28;20184;-70
2023/09/10 06:29:11;;;;;;;22.88;20.50;;;;;;;;;;5051684;28;20033;-70
2023/09/10 06:31:37;;;;;;;23.38;20.90;;;;;;;;;;5053801;28;20036;-70
2023/09/10 06:34:04;;;;;;;35.80;32.00;;;;;;;;;;5054573;28;20089;-70
2023/09/10 06:36:31;;;;;;;42.40;37.13;;;;;;;;;;5053324;28;20041;-70
2023/09/10 06:38:57;;;;;;;41.90;37.42;;;;;;;;;;5054605;28;20028;-69
2023/09/10 06:41:23;;;;;;;44.78;39.92;;;;;;;;;;5055533;28;20748;-69
2023/09/10 06:43:49;;;;;;;44.35;38.10;;;;;;;;;;5055613;28;20038;-69
2023/09/10 06:46:15;;;;;;;42.22;37.70;;;;;;;;;;5056452;28;20032;-69
2023/09/10 06:48:41;;;;;;;42.78;37.92;;;;;;;;;;5056423;28;20040;-69
2023/09/10 06:51:07;;;;;;;41.22;36.88;;;;;;;;;;5053466;28;20032;-69
2023/09/10 06:53:36;;;;;;;44.50;37.80;;;;;;;;;;5055382;28;20189;-69
2023/09/10 06:56:02;;;;;;;42.05;37.42;;;;;;;;;;5055370;28;20151;-68
2023/09/10 06:58:28;;;;;;;44.85;39.95;;;;;;;;;;5056147;28;20047;-69
2023/09/10 07:00:54;;;;;;;40.88;36.20;;;;;;;;;;5056668;28;21783;-69
2023/09/10 07:03:20;;;;;;;39.58;35.35;;;;;;;;;;5056649;28;20040;-69
2023/09/10 07:05:46;;;;;;;41.67;37.08;;;;;;;;;;5056214;28;20391;-69
2023/09/10 07:08:12;;;;;;;41.08;36.53;;;;;;;;;;5054366;28;20040;-69
2023/09/10 07:10:39;;;;;;;40.80;35.00;;;;;;;;;;5056318;28;20594;-69
2023/09/10 07:13:06;;;;;;;43.08;36.97;;;;;;;;;;5056067;28;20086;-69
2023/09/10 07:15:36;;;;;;;40.20;36.00;;;;;;;;;;5055745;28;20042;-68
2023/09/10 07:18:03;;;;;;;40.33;36.00;;;;;;;;;;5055977;28;20617;-69
2023/09/10 07:20:30;;;;;;;38.17;34.13;;;;;;;;;;5055699;28;21733;-69
2023/09/10 07:22:56;;;;;;;37.42;33.47;;;;;;;;;;5055494;28;20085;-69
2023/09/10 07:25:24;;;;;;;42.08;34.85;;;;;;;;;;5055465;28;20044;-69
2023/09/10 07:27:50;;;;;;;38.13;34.08;;;;;;;;;;5055904;28;20040;-69
2023/09/10 07:30:16;;;;;;;35.03;31.23;;;;;;;;;;5055561;28;20039;-69
2023/09/10 07:32:42;;;;;;;34.10;30.48;;;;;;;;;;5056071;28;20036;-69
2023/09/10 07:35:08;;;;;;;36.90;32.67;;;;;;;;;;5055913;28;20040;-68
2023/09/10 07:37:34;;;;;;;36.28;32.47;;;;;;;;;;5055190;28;20047;-69
2023/09/10 07:40:00;;;;;;;35.15;31.38;;;;;;;;;;5055144;28;20050;-69
2023/09/10 07:42:26;;;;;;;35.17;31.52;;;;;;;;;;5055458;28;20035;-68
2023/09/10 07:44:53;;;;;;;35.92;32.28;;;;;;;;;;5054554;28;20094;-68
2023/09/10 07:47:19;;;;;;;35.95;31.58;;;;;;;;;;5054853;28;20114;-69
2023/09/10 07:49:45;;;;;;;38.03;32.97;;;;;;;;;;5055424;28;20083;-69
2023/09/10 07:52:12;;;;;;;35.63;31.90;;;;;;;;;;5053162;28;20044;-69
2023/09/10 07:54:39;;;;;;;37.88;33.40;;;;;;;;;;5052376;28;20035;-68
2023/09/10 07:57:05;;;;;;;34.08;30.67;;;;;;;;;;5055270;28;20040;-69
2023/09/10 07:59:31;;;;;;;34.58;30.98;;;;;;;;;;5054676;28;20036;-69
2023/09/10 08:01:57;;;;;;;33.92;30.33;;;;;;;;;;5052888;28;20031;-69
2023/09/10 08:04:24;;;;;;;32.05;28.60;;;;;;;;;;5052403;28;20065;-68
2023/09/10 08:06:50;;;;;;;34.03;30.45;;;;;;;;;;5053548;28;20052;-68
2023/09/10 08:09:17;;;;;;;32.92;28.83;;;;;;;;;;5053382;28;21760;-68
2023/09/10 08:11:44;;;;;;;30.20;27.15;;;;;;;;;;5055661;28;20543;-69
2023/09/10 08:14:10;;;;;;;29.85;26.65;;;;;;;;;;5057330;28;20123;-68
2023/09/10 08:16:37;;;;;;;31.77;28.38;;;;;;;;;;5057102;28;21909;-68
2023/09/10 08:19:04;;;;;;;28.10;25.20;;;;;;;;;;5054029;28;20566;-69
2023/09/10 08:21:30;;;;;;;27.35;24.55;;;;;;;;;;5055950;28;20579;-68
2023/09/10 08:24:01;;;;;;;28.23;25.33;;;;;;;;;;5056635;28;20040;-68
2023/09/10 08:26:29;;;;;;;27.45;23.40;;;;;;;;;;5055327;28;20754;-69
2023/09/10 08:28:56;;;;;;;26.73;23.98;;;;;;;;;;5055599;28;20527;-69
2023/09/10 08:31:24;;;;;;;25.40;22.83;;;;;;;;;;5057017;28;20059;-69
2023/09/10 08:33:50;;;;;;;26.02;22.27;;;;;;;;;;5055416;28;20028;-69
2023/09/10 08:36:16;;;;;;;25.23;21.65;;;;;;;;;;5055694;28;20056;-69
2023/09/10 08:38:43;;;;;;;26.25;21.88;;;;;;;;;;5056131;28;20592;-69
2023/09/10 08:41:13;;;;;;;23.80;21.40;;;;;;;;;;5056472;28;20040;-68
2023/09/10 08:43:42;;;;;;;24.50;21.92;;;;;;;;;;5055005;28;20122;-69
2023/09/10 08:46:10;;;;;;;22.80;19.70;;;;;;;;;;5054937;28;20036;-68
2023/09/10 08:48:40;;;;;;;22.88;19.80;;;;;;;;;;5056860;28;20117;-68
2023/09/10 08:51:07;;;;;;;24.75;22.17;;;;;;;;;;5057356;28;20592;-68
2023/09/10 08:53:35;;;;;;;23.52;19.15;;;;;;;;;;5056511;28;20564;-69
2023/09/10 08:56:03;;;;;;;20.63;18.42;;;;;;;;;;5055669;28;20028;-69
2023/09/10 08:58:30;;;;;;;20.10;18.00;;;;;;;;;;5053434;28;20126;-69
2023/09/10 09:00:57;;;;;;;20.48;18.33;;;;;;;;;;5055374;28;20127;-68
2023/09/10 09:03:23;;;;;;;18.92;16.60;;;;;;;;;;5056246;28;20042;-68
2023/09/10 09:05:52;;;;;;;18.08;16.17;;;;;;;;;;5056915;28;20612;-68
2023/09/10 09:08:22;;;;;;;18.08;15.80;;;;;;;;;;5056879;28;20482;-69
2023/09/10 09:10:48;;;;;;;18.10;16.17;;;;;;;;;;5056746;28;20024;-69
2023/09/10 09:13:16;;;;;;;17.48;15.30;;;;;;;;;;5056717;28;20195;-68
2023/09/10 09:15:42;;;;;;;18.15;15.80;;;;;;;;;;5055179;28;20063;-68
2023/09/10 09:18:09;;;;;;;17.60;15.73;;;;;;;;;;5056279;28;20187;-68
2023/09/10 09:20:35;;;;;;;17.52;14.77;;;;;;;;;;5056018;28;20089;-68
2023/09/10 09:23:10;;;;;;;15.40;13.27;;;;;;;;;;5055459;28;20113;-69
2023/09/10 09:25:36;;;;;;;15.38;13.55;;;;;;;;;;5055147;28;20122;-69
2023/09/10 09:28:03;;;;;;;15.13;13.52;;;;;;;;;;5056130;28;20466;-68
2023/09/10 09:30:29;;;;;;;16.55;13.43;;;;;;;;;;5055289;28;20027;-68
2023/09/10 09:32:57;;;;;;;15.35;12.10;;;;;;;;;;5056257;28;20078;-68
2023/09/10 09:35:24;;;;;;;15.30;12.00;;;;;;;;;;5055931;28;20149;-68
2023/09/10 09:37:50;;;;;;;14.00;12.30;;;;;;;;;;5056192;28;20044;-68
2023/09/10 09:40:21;;;;;;;13.95;12.52;;;;;;;;;;5056951;28;20111;-69
2023/09/10 09:42:47;;;;;;;13.73;12.32;;;;;;;;;;5054689;28;20694;-68
2023/09/10 09:45:13;;;;;;;13.93;11.85;;;;;;;;;;5055896;28;20031;-68
2023/09/10 09:47:39;;;;;;;16.85;11.80;;;;;;;;;;5056578;28;20024;-69
2023/09/10 09:50:05;;;;;;;14.90;12.60;;;;;;;;;;5056745;28;20036;-69
2023/09/10 09:52:31;;;;;;;13.35;11.95;;;;;;;;;;5057198;28;20070;-69
2023/09/10 09:54:57;;;;;;;14.13;12.15;;;;;;;;;;5056829;28;20039;-69
2023/09/10 09:57:24;;;;;;;16.25;12.73;;;;;;;;;;5056776;28;20028;-69
2023/09/10 09:59:50;;;;;;;14.63;11.65;;;;;;;;;;5056745;28;20028;-69
2023/09/10 10:02:17;;;;;;;14.23;12.63;;;;;;;;;;5057344;28;21012;-68
2023/09/10 10:04:44;;;;;;;16.73;12.95;;;;;;;;;;5053952;28;21748;-69
2023/09/10 10:07:12;;;;;;;17.55;13.27;;;;;;;;;;5053077;28;20145;-69
2023/09/10 10:09:39;;;;;;;15.55;11.93;;;;;;;;;;5055164;28;20036;-69
2023/09/10 10:12:06;;;;;;;18.23;11.98;;;;;;;;;;5053776;28;20027;-69
2023/09/10 10:14:33;;;;;;;14.40;11.88;;;;;;;;;;5057024;28;20036;-69
2023/09/10 10:17:01;;;;;;;12.45;9.77;;;;;;;;;;5056129;28;20121;-69
2023/09/10 10:19:30;;;;;;;13.15;10.27;;;;;;;;;;5054698;28;20122;-69
2023/09/10 10:21:56;;;;;;;13.52;10.32;;;;;;;;;;5059277;28;20032;-69
2023/09/10 10:24:23;;;;;;;14.45;12.07;;;;;;;;;;5039992;28;20452;-69
2023/09/10 10:26:57;;;;;;;12.70;11.27;;;;;;;;;;5053341;28;20037;-69
2023/09/10 10:29:24;;;;;;;13.02;11.73;;;;;;;;;;5037399;28;20143;-69
2023/09/10 10:32:01;;;;;;;12.82;11.40;;;;;;;;;;5056707;28;20034;-68
2023/09/10 10:34:29;;;;;;;14.13;10.85;;;;;;;;;;5054465;28;20538;-69
2023/09/10 10:37:03;;;;;;;13.43;9.45;;;;;;;;;;5055015;28;20041;-68
2023/09/10 10:39:42;;;;;;;13.85;9.38;;;;;;;;;;5056207;28;20044;-69
2023/09/10 10:42:13;;;;;;;12.88;9.60;;;;;;;;;;5052950;28;20039;-69
2023/09/10 10:44:39;;;;;;;11.82;8.60;;;;;;;;;;5055346;28;20079;-69
2023/09/10 10:47:19;;;;;;;13.85;9.60;;;;;;;;;;5055885;28;20884;-69
2023/09/10 10:49:52;;;;;;;16.15;10.35;;;;;;;;;;5054161;28;20064;-69
2023/09/10 10:52:27;;;;;;;13.93;9.48;;;;;;;;;;5054606;28;20028;-68
2023/09/10 10:54:54;;;;;;;10.93;8.95;;;;;;;;;;5052944;28;20020;-69
2023/09/10 10:57:24;;;;;;;11.20;8.63;;;;;;;;;;5053029;28;20028;-69
2023/09/10 10:59:50;;;;;;;12.95;7.93;;;;;;;;;;5055287;28;20023;-69
2023/09/10 11:02:24;;;;;;;12.48;8.23;;;;;;;;;;5055194;28;20032;-69
2023/09/10 11:05:03;;;;;;;14.75;9.98;;;;;;;;;;5053932;28;20139;-69
2023/09/10 11:07:30;;;;;;;10.45;8.35;;;;;;;;;;5053866;28;20028;-69
2023/09/10 11:09:57;;;;;;;12.48;7.57;;;;;;;;;;5054288;28;20036;-69
2023/09/10 11:12:24;;;;;;;13.00;8.30;;;;;;;;;;5053280;28;20127;-69
2023/09/10 11:14:59;;;;;;;10.00;7.43;;;;;;;;;;5054264;28;20829;-70
2023/09/10 11:17:29;;;;;;;11.98;7.82;;;;;;;;;;5054451;28;20028;-69
2023/09/10 11:19:55;;;;;;;13.00;7.30;;;;;;;;;;5055877;28;20055;-69
2023/09/10 11:22:22;;;;;;;10.15;6.78;;;;;;;;;;5055021;28;20043;-69
2023/09/10 11:25:01;;;;;;;10.13;6.47;;;;;;;;;;5051612;28;20039;-69
2023/09/10 11:27:27;;;;;;;11.75;7.15;;;;;;;;;;5056399;28;20029;-69
2023/09/10 11:30:13;;;;;;;8.95;6.95;;;;;;;;;;5056339;28;20053;-68
2023/09/10 11:32:39;;;;;;;9.77;6.60;;;;;;;;;;5055635;28;20587;-69
2023/09/10 11:35:18;;;;;;;10.95;7.10;;;;;;;;;;5054425;28;20031;-69
2023/09/10 11:37:51;;;;;;;13.25;7.28;;;;;;;;;;5056306;28;20044;-69
2023/09/10 11:40:18;;;;;;;13.73;6.95;;;;;;;;;;5055061;28;20028;-69
2023/09/10 11:42:46;;;;;;;10.35;6.70;;;;;;;;;;5054440;28;21053;-68
2023/09/10 11:45:12;;;;;;;15.38;6.97;;;;;;;;;;5056786;28;20217;-69
2023/09/10 11:47:45;;;;;;;10.30;6.13;;;;;;;;;;5058311;28;20036;-69
2023/09/10 11:50:12;;;;;;;12.57;7.35;;;;;;;;;;5059192;28;21639;-69
2023/09/10 11:52:40;;;;;;;12.32;7.70;;;;;;;;;;5059927;28;20143;-69
2023/09/10 11:55:09;;;;;;;11.90;6.65;;;;;;;;;;5060140;28;20025;-69
2023/09/10 11:57:35;;;;;;;10.77;6.78;;;;;;;;;;5059511;28;20032;-69
2023/09/10 12:00:02;;;;;;;12.88;6.30;;;;;;;;;;5059691;28;20126;-69
2023/09/10 12:02:29;;;;;;;12.18;6.13;;;;;;;;;;5059981;28;21223;-69
2023/09/10 12:04:55;;;;;;;11.05;6.10;;;;;;;;;;5059415;28;20151;-69
2023/09/10 12:07:21;;;;;;;9.77;5.68;;;;;;;;;;5058651;28;20047;-69
2023/09/10 12:09:47;;;;;;;10.43;5.25;;;;;;;;;;5055110;28;20050;-69
2023/09/10 12:12:15;;;;;;;11.52;6.30;;;;;;;;;;5058230;28;20122;-69
2023/09/10 12:14:41;;;;;;;9.45;6.30;;;;;;;;;;5058008;28;20170;-69
2023/09/10 12:17:07;;;;;;;15.32;6.60;;;;;;;;;;5059308;28;20237;-69
2023/09/10 12:19:34;;;;;;;13.57;6.07;;;;;;;;;;5058443;28;20036;-69
2023/09/10 12:22:09;;;;;;;13.70;6.10;;;;;;;;;;5057772;28;20514;-69
2023/09/10 12:24:35;;;;;;;14.57;6.68;;;;;;;;;;5057881;28;20035;-68
2023/09/10 12:27:02;;;;;;;10.63;6.63;;;;;;;;;;5058455;28;21109;-69
2023/09/10 12:29:28;;;;;;;9.05;6.75;;;;;;;;;;5057627;28;20078;-68
2023/09/10 12:31:56;;;;;;;14.48;6.10;;;;;;;;;;5057708;28;20035;-68
2023/09/10 12:34:23;;;;;;;10.32;6.22;;;;;;;;;;5057308;28;20036;-68
2023/09/10 12:36:50;;;;;;;10.02;6.38;;;;;;;;;;5056599;28;20044;-69
2023/09/10 12:39:23;;;;;;;10.55;6.70;;;;;;;;;;5057418;28;20032;-69
2023/09/10 12:41:53;;;;;;;13.13;6.18;;;;;;;;;;5056206;28;20771;-69
2023/09/10 12:44:20;;;;;;;12.23;6.28;;;;;;;;;;5058491;28;20081;-69
2023/09/10 12:46:46;;;;;;;8.75;6.35;;;;;;;;;;5058504;28;20075;-69
2023/09/10 12:49:12;;;;;;;10.85;6.30;;;;;;;;;;5058073;28;20036;-69
2023/09/10 12:51:42;;;;;;;10.20;6.57;;;;;;;;;;5058367;28;20024;-69
2023/09/10 12:54:08;;;;;;;9.85;5.75;;;;;;;;;;5056133;28;20029;-69
2023/09/10 12:56:40;;;;;;;13.88;6.88;;;;;;;;;;5054165;28;20121;-69
2023/09/10 12:59:07;;;;;;;10.25;6.63;;;;;;;;;;5056688;28;20060;-69
2023/09/10 13:01:33;;;;;;;9.57;6.10;;;;;;;;;;5053475;28;20150;-69
2023/09/10 13:03:59;;;;;;;14.65;7.43;;;;;;;;;;5056549;28;20097;-69
2023/09/10 13:06:28;;;;;;;11.80;6.65;;;;;;;;;;5056240;28;20040;-69
2023/09/10 13:08:55;;;;;;;10.82;6.85;;;;;;;;;;5057960;28;20043;-69
2023/09/10 13:11:21;;;;;;;9.82;6.65;;;;;;;;;;5057093;28;21786;-69
2023/09/10 13:13:48;;;;;;;15.73;6.90;;;;;;;;;;5058327;28;20109;-69
2023/09/10 13:16:14;;;;;;;11.23;6.85;;;;;;;;;;5058353;28;20032;-69
2023/09/10 13:18:40;;;;;;;14.85;6.97;;;;;;;;;;5074743;28;20044;-69
2023/09/10 13:21:06;;;;;;;14.90;6.95;;;;;;;;;;5057854;28;20040;-69
2023/09/10 13:23:32;;;;;;;15.13;7.07;;;;;;;;;;5058181;28;20040;-69
2023/09/10 13:25:58;;;;;;;9.15;6.50;;;;;;;;;;5057367;28;20037;-69
2023/09/10 13:28:24;;;;;;;15.50;6.90;;;;;;;;;;5057193;28;20032;-69
2023/09/10 13:30:50;;;;;;;12.43;7.25;;;;;;;;;;5055590;28;20066;-69
2023/09/10 13:33:16;;;;;;;11.25;5.93;;;;;;;;;;5057447;28;20028;-69
2023/09/10 13:35:42;;;;;;;14.63;7.22;;;;;;;;;;5056432;28;20032;-68
2023/09/10 13:38:08;;;;;;;13.70;7.03;;;;;;;;;;5055407;28;20052;-69
2023/09/10 13:40:39;;;;;;;11.23;6.82;;;;;;;;;;5055892;28;20110;-69
2023/09/10 13:43:05;;;;;;;11.15;6.72;;;;;;;;;;5057033;28;20028;-69
2023/09/10 13:45:31;;;;;;;13.10;6.68;;;;;;;;;;5054000;28;20060;-69
2023/09/10 13:48:01;;;;;;;13.23;7.05;;;;;;;;;;5056394;28;20028;-68
2023/09/10 13:50:30;;;;;;;12.32;7.22;;;;;;;;;;5056801;28;20052;-69
2023/09/10 13:52:56;;;;;;;13.70;6.90;;;;;;;;;;5055946;28;20036;-69
2023/09/10 13:55:22;;;;;;;11.40;7.20;;;;;;;;;;5057155;28;20036;-68
2023/09/10 13:57:49;;;;;;;14.80;7.53;;;;;;;;;;5056536;28;20406;-69
2023/09/10 14:00:15;;;;;;;14.82;7.20;;;;;;;;;;5055929;28;20180;-69
2023/09/10 14:02:41;;;;;;;16.75;7.07;;;;;;;;;;5056869;28;20033;-69
2023/09/10 14:05:07;;;;;;;12.30;7.00;;;;;;;;;;5057000;28;20049;-69
2023/09/10 14:07:34;;;;;;;16.88;7.00;;;;;;;;;;5054597;28;21378;-69
2023/09/10 14:10:00;;;;;;;17.17;6.95;;;;;;;;;;5056252;28;20045;-69
2023/09/10 14:12:26;;;;;;;14.10;7.05;;;;;;;;;;5054793;28;20071;-69
2023/09/10 14:14:52;;;;;;;16.52;7.30;;;;;;;;;;5056366;28;20036;-69
2023/09/10 14:17:18;;;;;;;14.45;6.85;;;;;;;;;;5056679;28;20124;-69
2023/09/10 14:19:44;;;;;;;14.02;7.13;;;;;;;;;;5051208;28;20040;-69
2023/09/10 14:22:10;;;;;;;15.60;7.03;;;;;;;;;;5051095;28;20540;-69
2023/09/10 14:24:36;;;;;;;10.93;6.60;;;;;;;;;;5055095;28;20028;-69